sensor_id;sensor_type;location;lat;lon;timestamp;temperature;humidity
20204;DHT22;10261;49.010;12.034;2023-06-05T00:00:34;19.50;98.10
20204;DHT22;10261;49.010;12.034;2023-06-05T00:01:36;16.90;96.60
20204;DHT22;10261;49.010;12.034;2023-06-05T00:02:39;18.60;97.60
20204;DHT22;10261;49.010;12.034;2023-06-05T00:03:41;20.30;98.40
20204;DHT22;10261;49.010;12.034;2023-06-05T00:04:45;20.30;98.40
20204;DHT22;10261;49.010;12.034;2023-06-05T00:05:48;16.90;96.90
20204;DHT22;10261;49.010;12.034;2023-06-05T00:06:51;16.90;97.00
20204;DHT22;10261;49.010;12.034;2023-06-05T00:07:53;16.90;97.00
20204;DHT22;10261;49.010;12.034;2023-06-05T00:08:56;16.90;96.80
20204;DHT22;10261;49.010;12.034;2023-06-05T00:09:58;19.30;98.00
20204;DHT22;10261;49.010;12.034;2023-06-05T00:11:01;16.90;96.90
20204;DHT22;10261;49.010;12.034;2023-06-05T00:12:03;16.90;97.10
20204;DHT22;10261;49.010;12.034;2023-06-05T00:13:06;16.90;97.40
20204;DHT22;10261;49.010;12.034;2023-06-05T00:14:09;16.90;97.30
20204;DHT22;10261;49.010;12.034;2023-06-05T00:15:12;16.90;97.40
20204;DHT22;10261;49.010;12.034;2023-06-05T00:16:14;16.90;97.30
20204;DHT22;10261;49.010;12.034;2023-06-05T00:17:17;16.90;97.30
20204;DHT22;10261;49.010;12.034;2023-06-05T00:18:21;19.00;98.40
20204;DHT22;10261;49.010;12.034;2023-06-05T00:19:24;16.90;97.30
20204;DHT22;10261;49.010;12.034;2023-06-05T00:20:26;18.30;97.70
20204;DHT22;10261;49.010;12.034;2023-06-05T00:21:29;16.90;96.90
20204;DHT22;10261;49.010;12.034;2023-06-05T00:22:31;16.90;96.60
20204;DHT22;10261;49.010;12.034;2023-06-05T00:23:35;18.20;97.40
20204;DHT22;10261;49.010;12.034;2023-06-05T00:24:37;16.90;96.70
20204;DHT22;10261;49.010;12.034;2023-06-05T00:25:41;19.80;98.20
20204;DHT22;10261;49.010;12.034;2023-06-05T00:26:43;18.50;97.60
20204;DHT22;10261;49.010;12.034;2023-06-05T00:27:45;18.30;97.70
20204;DHT22;10261;49.010;12.034;2023-06-05T00:28:48;16.90;97.10
20204;DHT22;10261;49.010;12.034;2023-06-05T00:29:52;16.90;97.20
20204;DHT22;10261;49.010;12.034;2023-06-05T00:30:54;19.60;98.50
20204;DHT22;10261;49.010;12.034;2023-06-05T00:31:57;19.80;98.60
20204;DHT22;10261;49.010;12.034;2023-06-05T00:32:59;16.90;97.10
20204;DHT22;10261;49.010;12.034;2023-06-05T00:34:02;16.90;97.20
20204;DHT22;10261;49.010;12.034;2023-06-05T00:35:05;16.90;96.90
20204;DHT22;10261;49.010;12.034;2023-06-05T00:36:09;16.90;96.80
20204;DHT22;10261;49.010;12.034;2023-06-05T00:37:11;16.90;96.90
20204;DHT22;10261;49.010;12.034;2023-06-05T00:38:14;16.90;96.90
20204;DHT22;10261;49.010;12.034;2023-06-05T00:39:17;16.90;96.90
20204;DHT22;10261;49.010;12.034;2023-06-05T00:40:21;19.60;98.30
20204;DHT22;10261;49.010;12.034;2023-06-05T00:41:23;16.90;97.10
20204;DHT22;10261;49.010;12.034;2023-06-05T00:42:26;16.90;96.90
20204;DHT22;10261;49.010;12.034;2023-06-05T00:43:28;16.90;97.10
20204;DHT22;10261;49.010;12.034;2023-06-05T00:44:31;16.80;96.80
20204;DHT22;10261;49.010;12.034;2023-06-05T00:45:34;16.90;96.70
20204;DHT22;10261;49.010;12.034;2023-06-05T00:46:37;16.80;96.40
20204;DHT22;10261;49.010;12.034;2023-06-05T00:47:40;17.30;96.40
20204;DHT22;10261;49.010;12.034;2023-06-05T00:48:43;16.80;96.00
20204;DHT22;10261;49.010;12.034;2023-06-05T00:49:48;16.80;96.20
20204;DHT22;10261;49.010;12.034;2023-06-05T00:50:52;20.00;97.80
20204;DHT22;10261;49.010;12.034;2023-06-05T00:51:54;16.90;96.40
20204;DHT22;10261;49.010;12.034;2023-06-05T00:52:57;19.80;97.90
20204;DHT22;10261;49.010;12.034;2023-06-05T00:53:59;16.80;96.80
20204;DHT22;10261;49.010;12.034;2023-06-05T00:55:03;16.80;96.80
20204;DHT22;10261;49.010;12.034;2023-06-05T00:56:05;16.80;97.10
20204;DHT22;10261;49.010;12.034;2023-06-05T00:57:08;17.10;97.40
20204;DHT22;10261;49.010;12.034;2023-06-05T00:58:11;17.40;97.60
20204;DHT22;10261;49.010;12.034;2023-06-05T00:59:14;16.80;97.20
20204;DHT22;10261;49.010;12.034;2023-06-05T01:00:16;16.80;97.00
20204;DHT22;10261;49.010;12.034;2023-06-05T01:01:22;16.80;96.90
20204;DHT22;10261;49.010;12.034;2023-06-05T01:02:26;16.80;96.90
20204;DHT22;10261;49.010;12.034;2023-06-05T01:03:30;16.80;97.00
20204;DHT22;10261;49.010;12.034;2023-06-05T01:04:35;16.80;97.10
20204;DHT22;10261;49.010;12.034;2023-06-05T01:05:39;16.80;97.10
20204;DHT22;10261;49.010;12.034;2023-06-05T01:06:41;16.80;97.20
20204;DHT22;10261;49.010;12.034;2023-06-05T01:07:45;16.80;97.20
20204;DHT22;10261;49.010;12.034;2023-06-05T01:08:49;16.80;97.30
20204;DHT22;10261;49.010;12.034;2023-06-05T01:09:52;16.80;97.20
20204;DHT22;10261;49.010;12.034;2023-06-05T01:10:55;16.70;97.20
20204;DHT22;10261;49.010;12.034;2023-06-05T01:12:05;19.80;98.70
20204;DHT22;10261;49.010;12.034;2023-06-05T01:13:16;16.70;97.30
20204;DHT22;10261;49.010;12.034;2023-06-05T01:14:23;16.80;97.40
20204;DHT22;10261;49.010;12.034;2023-06-05T01:15:27;18.00;98.00
20204;DHT22;10261;49.010;12.034;2023-06-05T01:16:33;16.70;97.70
20204;DHT22;10261;49.010;12.034;2023-06-05T01:17:37;19.70;99.20
20204;DHT22;10261;49.010;12.034;2023-06-05T01:18:40;16.70;97.60
20204;DHT22;10261;49.010;12.034;2023-06-05T01:19:42;19.80;99.00
20204;DHT22;10261;49.010;12.034;2023-06-05T01:20:46;19.80;99.20
20204;DHT22;10261;49.010;12.034;2023-06-05T01:21:48;16.60;97.80
20204;DHT22;10261;49.010;12.034;2023-06-05T01:22:52;16.70;97.90
20204;DHT22;10261;49.010;12.034;2023-06-05T01:23:54;18.00;98.40
20204;DHT22;10261;49.010;12.034;2023-06-05T01:24:57;16.70;97.90
20204;DHT22;10261;49.010;12.034;2023-06-05T01:26:02;20.00;99.40
20204;DHT22;10261;49.010;12.034;2023-06-05T01:27:13;16.70;97.70
20204;DHT22;10261;49.010;12.034;2023-06-05T01:28:20;19.60;99.10
20204;DHT22;10261;49.010;12.034;2023-06-05T01:29:34;16.70;97.90
20204;DHT22;10261;49.010;12.034;2023-06-05T01:30:42;16.60;97.90
20204;DHT22;10261;49.010;12.034;2023-06-05T01:31:49;18.00;98.60
20204;DHT22;10261;49.010;12.034;2023-06-05T01:32:56;16.60;98.00
20204;DHT22;10261;49.010;12.034;2023-06-05T01:34:07;16.70;98.10
20204;DHT22;10261;49.010;12.034;2023-06-05T01:35:11;16.60;98.00
20204;DHT22;10261;49.010;12.034;2023-06-05T01:36:19;19.70;99.00
20204;DHT22;10261;49.010;12.034;2023-06-05T01:37:23;16.70;97.50
20204;DHT22;10261;49.010;12.034;2023-06-05T01:38:28;16.60;97.50
20204;DHT22;10261;49.010;12.034;2023-06-05T01:39:31;16.70;97.30
20204;DHT22;10261;49.010;12.034;2023-06-05T01:40:35;16.70;97.00
20204;DHT22;10261;49.010;12.034;2023-06-05T01:41:38;16.70;96.90
20204;DHT22;10261;49.010;12.034;2023-06-05T01:42:43;16.70;96.60
20204;DHT22;10261;49.010;12.034;2023-06-05T01:43:46;17.90;96.90
20204;DHT22;10261;49.010;12.034;2023-06-05T01:44:50;19.00;97.30
20204;DHT22;10261;49.010;12.034;2023-06-05T01:45:53;16.60;96.20
20204;DHT22;10261;49.010;12.034;2023-06-05T01:46:58;16.60;96.20
20204;DHT22;10261;49.010;12.034;2023-06-05T01:48:01;16.70;96.10
20204;DHT22;10261;49.010;12.034;2023-06-05T01:49:05;16.60;95.50
20204;DHT22;10261;49.010;12.034;2023-06-05T01:50:09;16.70;95.20
20204;DHT22;10261;49.010;12.034;2023-06-05T01:51:14;16.60;95.50
20204;DHT22;10261;49.010;12.034;2023-06-05T01:52:16;16.70;95.50
20204;DHT22;10261;49.010;12.034;2023-06-05T01:53:19;19.70;97.10
20204;DHT22;10261;49.010;12.034;2023-06-05T01:54:23;16.70;95.60
20204;DHT22;10261;49.010;12.034;2023-06-05T01:55:28;16.70;95.50
20204;DHT22;10261;49.010;12.034;2023-06-05T01:56:30;17.90;96.10
20204;DHT22;10261;49.010;12.034;2023-06-05T01:57:34;16.70;95.70
20204;DHT22;10261;49.010;12.034;2023-06-05T01:58:36;17.90;96.40
20204;DHT22;10261;49.010;12.034;2023-06-05T01:59:40;18.90;97.00
20204;DHT22;10261;49.010;12.034;2023-06-05T02:00:42;19.10;97.20
20204;DHT22;10261;49.010;12.034;2023-06-05T02:01:47;16.70;96.20
20204;DHT22;10261;49.010;12.034;2023-06-05T02:02:49;18.70;97.30
20204;DHT22;10261;49.010;12.034;2023-06-05T02:03:53;16.70;96.40
20204;DHT22;10261;49.010;12.034;2023-06-05T02:04:55;18.10;97.30
20204;DHT22;10261;49.010;12.034;2023-06-05T02:06:01;16.60;96.60
20204;DHT22;10261;49.010;12.034;2023-06-05T02:07:03;16.60;96.40
20204;DHT22;10261;49.010;12.034;2023-06-05T02:08:07;16.60;96.50
20204;DHT22;10261;49.010;12.034;2023-06-05T02:09:10;16.60;96.60
20204;DHT22;10261;49.010;12.034;2023-06-05T02:10:16;16.60;96.60
20204;DHT22;10261;49.010;12.034;2023-06-05T02:11:21;16.60;96.60
20204;DHT22;10261;49.010;12.034;2023-06-05T02:12:24;16.60;96.60
20204;DHT22;10261;49.010;12.034;2023-06-05T02:13:27;16.60;96.70
20204;DHT22;10261;49.010;12.034;2023-06-05T02:14:31;19.70;98.30
20204;DHT22;10261;49.010;12.034;2023-06-05T02:15:33;16.60;96.70
20204;DHT22;10261;49.010;12.034;2023-06-05T02:16:37;19.10;98.00
20204;DHT22;10261;49.010;12.034;2023-06-05T02:17:40;16.50;96.70
20204;DHT22;10261;49.010;12.034;2023-06-05T02:18:46;16.60;96.70
20204;DHT22;10261;49.010;12.034;2023-06-05T02:19:50;16.50;96.60
20204;DHT22;10261;49.010;12.034;2023-06-05T02:20:54;16.50;96.80
20204;DHT22;10261;49.010;12.034;2023-06-05T02:21:56;16.50;96.80
20204;DHT22;10261;49.010;12.034;2023-06-05T02:22:59;16.50;96.60
20204;DHT22;10261;49.010;12.034;2023-06-05T02:24:02;16.50;96.80
20204;DHT22;10261;49.010;12.034;2023-06-05T02:25:06;16.50;97.10
20204;DHT22;10261;49.010;12.034;2023-06-05T02:26:09;16.50;97.00
20204;DHT22;10261;49.010;12.034;2023-06-05T02:27:12;16.50;96.90
20204;DHT22;10261;49.010;12.034;2023-06-05T02:28:14;16.70;96.70
20204;DHT22;10261;49.010;12.034;2023-06-05T02:29:18;16.50;95.90
20204;DHT22;10261;49.010;12.034;2023-06-05T02:30:20;16.50;95.80
20204;DHT22;10261;49.010;12.034;2023-06-05T02:31:24;16.50;96.00
20204;DHT22;10261;49.010;12.034;2023-06-05T02:32:27;16.50;95.30
20204;DHT22;10261;49.010;12.034;2023-06-05T02:33:30;16.40;95.40
20204;DHT22;10261;49.010;12.034;2023-06-05T02:34:32;16.50;95.30
20204;DHT22;10261;49.010;12.034;2023-06-05T02:35:35;16.40;94.80
20204;DHT22;10261;49.010;12.034;2023-06-05T02:36:37;16.40;95.00
20204;DHT22;10261;49.010;12.034;2023-06-05T02:37:41;16.50;94.90
20204;DHT22;10261;49.010;12.034;2023-06-05T02:38:45;16.40;95.00
20204;DHT22;10261;49.010;12.034;2023-06-05T02:39:51;18.60;96.40
20204;DHT22;10261;49.010;12.034;2023-06-05T02:40:53;16.50;95.60
20204;DHT22;10261;49.010;12.034;2023-06-05T02:41:57;18.20;96.60
20204;DHT22;10261;49.010;12.034;2023-06-05T02:42:59;16.40;95.60
20204;DHT22;10261;49.010;12.034;2023-06-05T02:44:03;16.40;95.60
20204;DHT22;10261;49.010;12.034;2023-06-05T02:45:06;16.40;95.40
20204;DHT22;10261;49.010;12.034;2023-06-05T02:46:09;16.40;95.60
20204;DHT22;10261;49.010;12.034;2023-06-05T02:47:11;16.40;95.20
20204;DHT22;10261;49.010;12.034;2023-06-05T02:48:14;19.80;96.90
20204;DHT22;10261;49.010;12.034;2023-06-05T02:49:16;16.40;95.30
20204;DHT22;10261;49.010;12.034;2023-06-05T02:50:19;16.40;95.40
20204;DHT22;10261;49.010;12.034;2023-06-05T02:51:21;18.80;96.70
20204;DHT22;10261;49.010;12.034;2023-06-05T02:52:24;16.40;95.80
20204;DHT22;10261;49.010;12.034;2023-06-05T02:53:26;16.50;96.10
20204;DHT22;10261;49.010;12.034;2023-06-05T02:54:29;18.80;97.10
20204;DHT22;10261;49.010;12.034;2023-06-05T02:55:31;17.50;96.40
20204;DHT22;10261;49.010;12.034;2023-06-05T02:56:34;16.40;95.80
20204;DHT22;10261;49.010;12.034;2023-06-05T02:57:37;16.40;95.80
20204;DHT22;10261;49.010;12.034;2023-06-05T02:58:44;18.90;96.90
20204;DHT22;10261;49.010;12.034;2023-06-05T02:59:47;18.20;96.50
20204;DHT22;10261;49.010;12.034;2023-06-05T03:00:50;19.00;96.80
20204;DHT22;10261;49.010;12.034;2023-06-05T03:01:52;16.30;95.30
20204;DHT22;10261;49.010;12.034;2023-06-05T03:02:55;16.40;95.20
20204;DHT22;10261;49.010;12.034;2023-06-05T03:03:58;16.30;94.90
20204;DHT22;10261;49.010;12.034;2023-06-05T03:05:01;16.40;94.50
20204;DHT22;10261;49.010;12.034;2023-06-05T03:06:04;16.30;94.60
20204;DHT22;10261;49.010;12.034;2023-06-05T03:07:09;16.30;94.40
20204;DHT22;10261;49.010;12.034;2023-06-05T03:08:11;16.30;94.50
20204;DHT22;10261;49.010;12.034;2023-06-05T03:09:14;16.30;94.70
20204;DHT22;10261;49.010;12.034;2023-06-05T03:10:17;16.30;94.70
20204;DHT22;10261;49.010;12.034;2023-06-05T03:11:20;16.30;94.80
20204;DHT22;10261;49.010;12.034;2023-06-05T03:12:22;16.40;94.90
20204;DHT22;10261;49.010;12.034;2023-06-05T03:13:27;16.40;95.00
20204;DHT22;10261;49.010;12.034;2023-06-05T03:14:29;16.30;94.90
20204;DHT22;10261;49.010;12.034;2023-06-05T03:15:33;16.30;94.80
20204;DHT22;10261;49.010;12.034;2023-06-05T03:16:36;16.30;94.90
20204;DHT22;10261;49.010;12.034;2023-06-05T03:17:43;16.30;94.80
20204;DHT22;10261;49.010;12.034;2023-06-05T03:18:46;18.90;95.80
20204;DHT22;10261;49.010;12.034;2023-06-05T03:19:49;16.30;94.50
20204;DHT22;10261;49.010;12.034;2023-06-05T03:20:52;16.30;94.40
20204;DHT22;10261;49.010;12.034;2023-06-05T03:21:56;16.20;94.30
20204;DHT22;10261;49.010;12.034;2023-06-05T03:22:58;16.30;94.30
20204;DHT22;10261;49.010;12.034;2023-06-05T03:24:01;16.30;94.40
20204;DHT22;10261;49.010;12.034;2023-06-05T03:25:04;16.30;94.10
20204;DHT22;10261;49.010;12.034;2023-06-05T03:26:07;16.20;94.00
20204;DHT22;10261;49.010;12.034;2023-06-05T03:27:09;17.60;95.10
20204;DHT22;10261;49.010;12.034;2023-06-05T03:28:12;16.30;94.00
20204;DHT22;10261;49.010;12.034;2023-06-05T03:29:15;16.30;93.80
20204;DHT22;10261;49.010;12.034;2023-06-05T03:30:18;16.30;93.70
20204;DHT22;10261;49.010;12.034;2023-06-05T03:31:21;16.30;93.60
20204;DHT22;10261;49.010;12.034;2023-06-05T03:32:24;16.20;93.60
20204;DHT22;10261;49.010;12.034;2023-06-05T03:33:26;16.30;93.50
20204;DHT22;10261;49.010;12.034;2023-06-05T03:34:29;16.30;93.50
20204;DHT22;10261;49.010;12.034;2023-06-05T03:35:31;19.30;94.80
20204;DHT22;10261;49.010;12.034;2023-06-05T03:36:34;16.30;93.40
20204;DHT22;10261;49.010;12.034;2023-06-05T03:37:39;16.30;93.40
20204;DHT22;10261;49.010;12.034;2023-06-05T03:38:41;16.30;93.60
20204;DHT22;10261;49.010;12.034;2023-06-05T03:39:44;19.20;95.10
20204;DHT22;10261;49.010;12.034;2023-06-05T03:40:46;19.00;94.80
20204;DHT22;10261;49.010;12.034;2023-06-05T03:41:49;16.30;93.70
20204;DHT22;10261;49.010;12.034;2023-06-05T03:42:51;16.30;93.60
20204;DHT22;10261;49.010;12.034;2023-06-05T03:43:54;16.30;93.60
20204;DHT22;10261;49.010;12.034;2023-06-05T03:44:58;16.30;93.50
20204;DHT22;10261;49.010;12.034;2023-06-05T03:46:01;16.30;93.60
20204;DHT22;10261;49.010;12.034;2023-06-05T03:47:03;16.30;93.80
20204;DHT22;10261;49.010;12.034;2023-06-05T03:48:06;16.30;93.90
20204;DHT22;10261;49.010;12.034;2023-06-05T03:49:10;16.30;93.80
20204;DHT22;10261;49.010;12.034;2023-06-05T03:50:12;16.30;93.90
20204;DHT22;10261;49.010;12.034;2023-06-05T03:51:15;16.30;94.20
20204;DHT22;10261;49.010;12.034;2023-06-05T03:52:19;17.30;94.90
20204;DHT22;10261;49.010;12.034;2023-06-05T03:53:26;16.30;93.90
20204;DHT22;10261;49.010;12.034;2023-06-05T03:54:30;16.30;94.00
20204;DHT22;10261;49.010;12.034;2023-06-05T03:55:35;19.40;95.60
20204;DHT22;10261;49.010;12.034;2023-06-05T03:56:43;19.40;95.50
20204;DHT22;10261;49.010;12.034;2023-06-05T03:57:51;16.30;94.00
20204;DHT22;10261;49.010;12.034;2023-06-05T03:58:53;16.30;94.30
20204;DHT22;10261;49.010;12.034;2023-06-05T03:59:57;19.00;95.70
20204;DHT22;10261;49.010;12.034;2023-06-05T04:01:00;16.30;94.40
20204;DHT22;10261;49.010;12.034;2023-06-05T04:02:02;16.30;94.50
20204;DHT22;10261;49.010;12.034;2023-06-05T04:03:06;16.30;94.70
20204;DHT22;10261;49.010;12.034;2023-06-05T04:04:10;16.30;94.70
20204;DHT22;10261;49.010;12.034;2023-06-05T04:05:14;16.30;94.70
20204;DHT22;10261;49.010;12.034;2023-06-05T04:06:16;16.30;94.60
20204;DHT22;10261;49.010;12.034;2023-06-05T04:07:19;16.30;94.60
20204;DHT22;10261;49.010;12.034;2023-06-05T04:08:21;16.30;94.40
20204;DHT22;10261;49.010;12.034;2023-06-05T04:09:24;16.30;94.30
20204;DHT22;10261;49.010;12.034;2023-06-05T04:10:27;16.30;94.20
20204;DHT22;10261;49.010;12.034;2023-06-05T04:11:30;17.50;95.00
20204;DHT22;10261;49.010;12.034;2023-06-05T04:12:33;16.30;94.80
20204;DHT22;10261;49.010;12.034;2023-06-05T04:13:36;16.30;94.90
20204;DHT22;10261;49.010;12.034;2023-06-05T04:14:39;16.30;94.90
20204;DHT22;10261;49.010;12.034;2023-06-05T04:15:44;16.30;95.10
20204;DHT22;10261;49.010;12.034;2023-06-05T04:16:46;16.30;95.20
20204;DHT22;10261;49.010;12.034;2023-06-05T04:17:49;16.30;95.20
20204;DHT22;10261;49.010;12.034;2023-06-05T04:18:51;16.30;95.10
20204;DHT22;10261;49.010;12.034;2023-06-05T04:19:54;16.30;95.10
20204;DHT22;10261;49.010;12.034;2023-06-05T04:20:56;16.30;95.10
20204;DHT22;10261;49.010;12.034;2023-06-05T04:21:59;16.30;95.20
20204;DHT22;10261;49.010;12.034;2023-06-05T04:23:01;16.30;95.50
20204;DHT22;10261;49.010;12.034;2023-06-05T04:24:05;16.30;96.00
20204;DHT22;10261;49.010;12.034;2023-06-05T04:25:09;16.30;96.00
20204;DHT22;10261;49.010;12.034;2023-06-05T04:26:14;16.30;96.00
20204;DHT22;10261;49.010;12.034;2023-06-05T04:27:17;16.30;96.10
20204;DHT22;10261;49.010;12.034;2023-06-05T04:28:21;16.30;96.40
20204;DHT22;10261;49.010;12.034;2023-06-05T04:29:23;16.30;96.60
20204;DHT22;10261;49.010;12.034;2023-06-05T04:30:26;16.30;96.50
20204;DHT22;10261;49.010;12.034;2023-06-05T04:31:32;16.20;96.70
20204;DHT22;10261;49.010;12.034;2023-06-05T04:32:37;16.30;96.00
20204;DHT22;10261;49.010;12.034;2023-06-05T04:33:40;16.30;96.00
20204;DHT22;10261;49.010;12.034;2023-06-05T04:34:43;16.30;96.30
20204;DHT22;10261;49.010;12.034;2023-06-05T04:35:45;16.30;96.60
20204;DHT22;10261;49.010;12.034;2023-06-05T04:36:48;16.30;96.70
20204;DHT22;10261;49.010;12.034;2023-06-05T04:37:52;19.20;98.20
20204;DHT22;10261;49.010;12.034;2023-06-05T04:38:55;16.30;96.80
20204;DHT22;10261;49.010;12.034;2023-06-05T04:39:58;16.30;96.70
20204;DHT22;10261;49.010;12.034;2023-06-05T04:41:01;19.00;98.30
20204;DHT22;10261;49.010;12.034;2023-06-05T04:42:03;16.30;97.10
20204;DHT22;10261;49.010;12.034;2023-06-05T04:43:16;16.30;97.10
20204;DHT22;10261;49.010;12.034;2023-06-05T04:44:18;16.30;97.10
20204;DHT22;10261;49.010;12.034;2023-06-05T04:45:21;16.30;97.10
20204;DHT22;10261;49.010;12.034;2023-06-05T04:46:23;16.30;97.10
20204;DHT22;10261;49.010;12.034;2023-06-05T04:47:27;16.30;97.10
20204;DHT22;10261;49.010;12.034;2023-06-05T04:48:29;17.40;97.60
20204;DHT22;10261;49.010;12.034;2023-06-05T04:49:32;16.30;97.10
20204;DHT22;10261;49.010;12.034;2023-06-05T04:50:34;15.70;97.00
20204;DHT22;10261;49.010;12.034;2023-06-05T04:51:37;15.70;98.20
20204;DHT22;10261;49.010;12.034;2023-06-05T04:52:40;15.80;98.60
20204;DHT22;10261;49.010;12.034;2023-06-05T04:53:42;15.90;98.20
20204;DHT22;10261;49.010;12.034;2023-06-05T04:54:44;18.60;99.10
20204;DHT22;10261;49.010;12.034;2023-06-05T04:55:48;16.10;98.10
20204;DHT22;10261;49.010;12.034;2023-06-05T04:56:52;16.10;98.20
20204;DHT22;10261;49.010;12.034;2023-06-05T04:57:55;16.20;97.80
20204;DHT22;10261;49.010;12.034;2023-06-05T04:59:02;16.20;97.50
20204;DHT22;10261;49.010;12.034;2023-06-05T05:00:06;16.30;97.60
20204;DHT22;10261;49.010;12.034;2023-06-05T05:01:09;16.20;97.50
20204;DHT22;10261;49.010;12.034;2023-06-05T05:02:13;16.30;97.40
20204;DHT22;10261;49.010;12.034;2023-06-05T05:03:16;16.30;97.30
20204;DHT22;10261;49.010;12.034;2023-06-05T05:04:20;16.30;97.30
20204;DHT22;10261;49.010;12.034;2023-06-05T05:05:22;19.00;98.40
20204;DHT22;10261;49.010;12.034;2023-06-05T05:06:27;16.40;97.60
20204;DHT22;10261;49.010;12.034;2023-06-05T05:07:29;16.40;97.50
20204;DHT22;10261;49.010;12.034;2023-06-05T05:08:32;16.30;97.10
20204;DHT22;10261;49.010;12.034;2023-06-05T05:09:34;16.30;96.90
20204;DHT22;10261;49.010;12.034;2023-06-05T05:10:37;16.40;96.80
20204;DHT22;10261;49.010;12.034;2023-06-05T05:11:42;16.40;96.50
20204;DHT22;10261;49.010;12.034;2023-06-05T05:12:45;17.70;97.10
20204;DHT22;10261;49.010;12.034;2023-06-05T05:13:48;17.50;97.60
20204;DHT22;10261;49.010;12.034;2023-06-05T05:14:50;16.40;97.10
20204;DHT22;10261;49.010;12.034;2023-06-05T05:15:53;16.40;97.40
20204;DHT22;10261;49.010;12.034;2023-06-05T05:16:56;16.40;97.10
20204;DHT22;10261;49.010;12.034;2023-06-05T05:17:59;16.40;97.30
20204;DHT22;10261;49.010;12.034;2023-06-05T05:19:06;16.40;97.30
20204;DHT22;10261;49.010;12.034;2023-06-05T05:20:09;17.60;97.70
20204;DHT22;10261;49.010;12.034;2023-06-05T05:21:12;16.40;97.10
20204;DHT22;10261;49.010;12.034;2023-06-05T05:22:15;16.40;97.20
20204;DHT22;10261;49.010;12.034;2023-06-05T05:23:17;16.40;97.20
20204;DHT22;10261;49.010;12.034;2023-06-05T05:24:20;16.40;97.10
20204;DHT22;10261;49.010;12.034;2023-06-05T05:25:22;16.40;97.50
20204;DHT22;10261;49.010;12.034;2023-06-05T05:26:25;19.30;98.80
20204;DHT22;10261;49.010;12.034;2023-06-05T05:27:27;16.40;97.50
20204;DHT22;10261;49.010;12.034;2023-06-05T05:28:30;16.40;97.70
20204;DHT22;10261;49.010;12.034;2023-06-05T05:29:34;19.20;99.30
20204;DHT22;10261;49.010;12.034;2023-06-05T05:30:36;17.80;98.40
20204;DHT22;10261;49.010;12.034;2023-06-05T05:31:38;16.50;97.80
20204;DHT22;10261;49.010;12.034;2023-06-05T05:32:40;16.50;97.90
20204;DHT22;10261;49.010;12.034;2023-06-05T05:33:43;16.50;98.00
20204;DHT22;10261;49.010;12.034;2023-06-05T05:34:47;16.50;97.90
20204;DHT22;10261;49.010;12.034;2023-06-05T05:35:52;19.00;99.80
20204;DHT22;10261;49.010;12.034;2023-06-05T05:36:55;16.50;98.20
20204;DHT22;10261;49.010;12.034;2023-06-05T05:37:57;16.50;98.00
20204;DHT22;10261;49.010;12.034;2023-06-05T05:39:00;16.50;98.20
20204;DHT22;10261;49.010;12.034;2023-06-05T05:40:02;17.90;99.20
20204;DHT22;10261;49.010;12.034;2023-06-05T05:41:06;16.50;98.70
20204;DHT22;10261;49.010;12.034;2023-06-05T05:42:09;16.50;98.80
20204;DHT22;10261;49.010;12.034;2023-06-05T05:43:12;16.50;98.80
20204;DHT22;10261;49.010;12.034;2023-06-05T05:44:15;18.80;99.50
20204;DHT22;10261;49.010;12.034;2023-06-05T05:45:18;16.60;98.50
20204;DHT22;10261;49.010;12.034;2023-06-05T05:46:20;16.60;98.70
20204;DHT22;10261;49.010;12.034;2023-06-05T05:47:24;16.60;98.70
20204;DHT22;10261;49.010;12.034;2023-06-05T05:48:27;16.80;98.60
20204;DHT22;10261;49.010;12.034;2023-06-05T05:49:29;16.60;98.70
20204;DHT22;10261;49.010;12.034;2023-06-05T05:50:33;18.70;99.90
20204;DHT22;10261;49.010;12.034;2023-06-05T05:51:36;16.60;99.00
20204;DHT22;10261;49.010;12.034;2023-06-05T05:52:38;16.60;98.80
20204;DHT22;10261;49.010;12.034;2023-06-05T05:53:41;16.60;98.60
20204;DHT22;10261;49.010;12.034;2023-06-05T05:54:43;16.60;98.50
20204;DHT22;10261;49.010;12.034;2023-06-05T05:55:46;19.50;99.90
20204;DHT22;10261;49.010;12.034;2023-06-05T05:56:48;16.60;99.00
20204;DHT22;10261;49.010;12.034;2023-06-05T05:57:51;16.60;98.90
20204;DHT22;10261;49.010;12.034;2023-06-05T05:58:53;16.60;98.90
20204;DHT22;10261;49.010;12.034;2023-06-05T05:59:56;16.60;99.10
20204;DHT22;10261;49.010;12.034;2023-06-05T06:00:59;16.60;99.30
20204;DHT22;10261;49.010;12.034;2023-06-05T06:02:01;16.60;99.50
20204;DHT22;10261;49.010;12.034;2023-06-05T06:03:10;16.60;99.50
20204;DHT22;10261;49.010;12.034;2023-06-05T06:04:16;16.60;99.40
20204;DHT22;10261;49.010;12.034;2023-06-05T06:05:18;16.70;99.50
20204;DHT22;10261;49.010;12.034;2023-06-05T06:06:23;16.70;99.50
20204;DHT22;10261;49.010;12.034;2023-06-05T06:07:26;16.70;99.50
20204;DHT22;10261;49.010;12.034;2023-06-05T06:08:28;16.70;99.80
20204;DHT22;10261;49.010;12.034;2023-06-05T06:09:31;18.10;99.90
20204;DHT22;10261;49.010;12.034;2023-06-05T06:10:33;16.70;99.90
20204;DHT22;10261;49.010;12.034;2023-06-05T06:11:36;16.80;99.90
20204;DHT22;10261;49.010;12.034;2023-06-05T06:12:39;19.40;99.90
20204;DHT22;10261;49.010;12.034;2023-06-05T06:13:43;16.80;99.90
20204;DHT22;10261;49.010;12.034;2023-06-05T06:14:45;16.80;99.90
20204;DHT22;10261;49.010;12.034;2023-06-05T06:15:49;16.80;99.90
20204;DHT22;10261;49.010;12.034;2023-06-05T06:16:52;19.40;99.90
20204;DHT22;10261;49.010;12.034;2023-06-05T06:17:57;17.80;99.90
20204;DHT22;10261;49.010;12.034;2023-06-05T06:19:01;16.90;99.90
20204;DHT22;10261;49.010;12.034;2023-06-05T06:20:04;16.80;99.90
20204;DHT22;10261;49.010;12.034;2023-06-05T06:21:07;16.90;99.90
20204;DHT22;10261;49.010;12.034;2023-06-05T06:22:11;16.90;99.90
20204;DHT22;10261;49.010;12.034;2023-06-05T06:23:14;16.90;99.90
20204;DHT22;10261;49.010;12.034;2023-06-05T06:24:17;16.90;99.90
20204;DHT22;10261;49.010;12.034;2023-06-05T06:25:21;18.60;99.90
20204;DHT22;10261;49.010;12.034;2023-06-05T06:26:27;18.40;99.90
20204;DHT22;10261;49.010;12.034;2023-06-05T06:27:29;17.00;99.90
20204;DHT22;10261;49.010;12.034;2023-06-05T06:28:35;17.00;99.90
20204;DHT22;10261;49.010;12.034;2023-06-05T06:29:45;18.70;99.90
20204;DHT22;10261;49.010;12.034;2023-06-05T06:30:49;17.00;99.90
20204;DHT22;10261;49.010;12.034;2023-06-05T06:31:52;17.00;99.90
20204;DHT22;10261;49.010;12.034;2023-06-05T06:32:54;19.90;99.90
20204;DHT22;10261;49.010;12.034;2023-06-05T06:33:59;17.00;99.90